createdAt,value
2018-08-30T00:00:59.468Z,91.36
2018-08-30T00:03:35.341Z,93.15
2018-08-30T00:06:11.203Z,93.41
2018-08-30T00:08:47.194Z,92.97
2018-08-30T00:11:22.977Z,92.10
2018-08-30T00:13:58.853Z,92.90
2018-08-30T00:16:34.562Z,92.10
2018-08-30T00:19:10.488Z,91.74
2018-08-30T00:21:46.505Z,90.85
2018-08-30T00:24:22.585Z,89.64
2018-08-30T00:26:58.315Z,88.71
2018-08-30T00:29:34.041Z,87.99
2018-08-30T00:32:09.804Z,87.44
2018-08-30T00:34:45.677Z,86.78
2018-08-30T00:37:21.463Z,88.08
2018-08-30T00:39:57.404Z,89.47
2018-08-30T00:42:33.120Z,89.41
2018-08-30T00:45:08.806Z,88.80
2018-08-30T00:47:48.246Z,89.10
2018-08-30T00:50:24.042Z,90.24
2018-08-30T00:52:59.614Z,91.60
2018-08-30T00:55:35.566Z,93.00
2018-08-30T00:58:11.322Z,93.00
2018-08-30T01:00:47.225Z,91.31
2018-08-30T01:03:22.927Z,93.08
2018-08-30T01:05:58.786Z,94.38
2018-08-30T01:08:34.608Z,94.91
2018-08-30T01:11:10.333Z,94.76
2018-08-30T01:13:46.081Z,94.72
2018-08-30T01:16:21.993Z,93.98
2018-08-30T01:18:57.770Z,93.95
2018-08-30T01:21:33.704Z,92.31
2018-08-30T01:24:09.496Z,91.22
2018-08-30T01:26:45.399Z,91.19
2018-08-30T01:29:21.120Z,92.65
2018-08-30T01:31:57.024Z,92.24
2018-08-30T01:34:32.750Z,92.48
2018-08-30T01:37:08.660Z,93.20
2018-08-30T01:39:44.397Z,93.14
2018-08-30T01:42:20.237Z,91.36
2018-08-30T01:44:55.832Z,90.67
2018-08-30T01:47:31.704Z,91.23
2018-08-30T01:50:07.868Z,90.31
2018-08-30T01:52:44.088Z,89.36
2018-08-30T01:55:20.458Z,89.06
2018-08-30T01:57:56.324Z,89.30
2018-08-30T02:00:32.098Z,88.97
2018-08-30T02:03:07.997Z,88.63
2018-08-30T02:05:43.841Z,88.69
2018-08-30T02:08:19.723Z,88.44
2018-08-30T02:10:55.558Z,88.88
2018-08-30T02:13:31.471Z,88.08
2018-08-30T02:16:07.710Z,87.90
2018-08-30T02:18:43.605Z,90.04
2018-08-30T02:21:19.394Z,91.23
2018-08-30T02:23:55.146Z,89.92
2018-08-30T02:26:30.954Z,91.43
2018-08-30T02:29:06.842Z,91.87
2018-08-30T02:31:42.608Z,91.54
2018-08-30T02:34:18.354Z,92.25
2018-08-30T02:36:54.205Z,92.27
2018-08-30T02:39:30.188Z,94.42
2018-08-30T02:42:05.951Z,93.78
2018-08-30T02:44:41.804Z,91.89
2018-08-30T02:47:17.557Z,91.24
2018-08-30T02:49:53.446Z,93.29
2018-08-30T02:52:29.257Z,95.86
2018-08-30T02:55:05.061Z,96.20
2018-08-30T02:57:40.806Z,94.07
2018-08-30T03:00:17.103Z,93.43
2018-08-30T03:02:52.985Z,92.57
2018-08-30T03:05:28.736Z,95.08
2018-08-30T03:08:04.515Z,96.34
2018-08-30T03:10:40.413Z,96.91
2018-08-30T03:13:16.315Z,98.84
2018-08-30T03:15:52.258Z,99.27
2018-08-30T03:18:28.085Z,99.49
2018-08-30T03:21:03.885Z,99.17
2018-08-30T03:23:39.742Z,97.39
2018-08-30T03:26:15.647Z,94.96
2018-08-30T03:28:51.357Z,94.03
2018-08-30T03:31:28.028Z,94.31
2018-08-30T03:34:03.933Z,94.18
2018-08-30T03:36:39.778Z,94.39
2018-08-30T03:39:15.637Z,95.52
2018-08-30T03:41:51.420Z,95.51
2018-08-30T03:44:39.482Z,96.14
2018-08-30T03:47:15.438Z,97.47
2018-08-30T03:49:51.230Z,98.89
2018-08-30T03:52:27.473Z,98.35
2018-08-30T03:55:03.322Z,98.65
2018-08-30T03:57:39.358Z,97.29
2018-08-30T04:00:15.267Z,96.43
2018-08-30T04:02:51.461Z,95.51
2018-08-30T04:05:28.177Z,93.49
2018-08-30T04:08:04.645Z,94.05
2018-08-30T04:10:40.722Z,94.80
2018-08-30T04:13:17.062Z,94.82
2018-08-30T04:15:54.417Z,94.80
2018-08-30T04:18:30.187Z,93.36
2018-08-30T04:21:06.047Z,92.59
2018-08-30T04:23:41.941Z,92.68
2018-08-30T04:26:17.805Z,92.45
2018-08-30T04:28:53.556Z,91.07
2018-08-30T04:31:29.478Z,91.68
2018-08-30T04:34:05.449Z,93.32
2018-08-30T04:36:41.177Z,94.90
2018-08-30T04:39:17.013Z,94.58
2018-08-30T04:41:52.874Z,95.33
2018-08-30T04:44:28.892Z,96.71
2018-08-30T04:47:04.801Z,96.47
2018-08-30T04:49:40.645Z,95.10
2018-08-30T04:52:16.402Z,93.33
2018-08-30T04:54:52.155Z,92.86
2018-08-30T04:57:27.915Z,93.56
2018-08-30T05:00:03.830Z,94.10
2018-08-30T05:02:39.660Z,94.07
2018-08-30T05:05:15.598Z,95.22
2018-08-30T05:07:51.392Z,94.64
2018-08-30T05:10:27.256Z,92.12
2018-08-30T05:13:03.017Z,90.25
2018-08-30T05:15:38.984Z,89.32
2018-08-30T05:18:14.765Z,87.44
2018-08-30T05:20:51.268Z,87.18
2018-08-30T05:23:27.132Z,85.95
2018-08-30T05:26:02.951Z,86.41
2018-08-30T05:28:39.144Z,85.88
2018-08-30T05:31:14.788Z,86.21
2018-08-30T05:33:50.529Z,85.76
2018-08-30T05:36:26.266Z,86.63
2018-08-30T05:39:02.107Z,86.24
2018-08-30T05:41:37.906Z,85.14
2018-08-30T05:44:13.742Z,84.63
2018-08-30T05:46:49.877Z,82.03
2018-08-30T05:49:25.588Z,80.34
2018-08-30T05:52:01.467Z,80.66
2018-08-30T05:54:37.207Z,79.67
2018-08-30T05:57:13.245Z,80.11
2018-08-30T05:59:48.851Z,79.18
2018-08-30T06:02:24.784Z,77.06
2018-08-30T06:05:00.911Z,76.31
2018-08-30T06:07:36.891Z,73.15
2018-08-30T06:10:07.344Z,74.19
2018-08-30T06:12:38.172Z,73.01
2018-08-30T06:15:09.358Z,72.17
2018-08-30T06:17:40.251Z,71.08
2018-08-30T06:20:13.699Z,69.58
2018-08-30T06:22:44.592Z,69.71
2018-08-30T06:25:15.770Z,68.92
2018-08-30T06:27:46.581Z,69.01
2018-08-30T06:30:21.781Z,69.07
2018-08-30T06:32:52.584Z,67.88
2018-08-30T06:35:26.278Z,66.93
2018-08-30T06:37:57.192Z,65.91
2018-08-30T06:40:27.957Z,64.48
2018-08-30T06:42:59.218Z,65.12
2018-08-30T06:45:30.111Z,64.56
2018-08-30T06:48:01.139Z,63.10
2018-08-30T06:50:31.910Z,63.60
2018-08-30T06:53:02.763Z,62.41
2018-08-30T06:55:33.606Z,62.29
2018-08-30T06:58:04.445Z,60.41
2018-08-30T07:00:35.194Z,59.60
2018-08-30T07:03:06.473Z,59.95
2018-08-30T07:05:37.250Z,60.68
2018-08-30T07:08:08.112Z,60.63
2018-08-30T07:10:39.108Z,59.89
2018-08-30T07:13:09.985Z,58.85
2018-08-30T07:15:40.863Z,57.65
2018-08-30T07:18:11.765Z,56.57
2018-08-30T07:20:42.584Z,56.03
2018-08-30T07:23:13.476Z,55.41
2018-08-30T07:25:44.232Z,53.49
2018-08-30T07:28:15.486Z,57.36
2018-08-30T07:30:46.313Z,56.57
2018-08-30T07:33:17.147Z,55.18
2018-08-30T07:35:47.932Z,54.52
2018-08-30T07:38:18.834Z,55.43
2018-08-30T07:40:49.601Z,54.48
2018-08-30T07:43:20.419Z,53.35
2018-08-30T07:45:51.230Z,52.94
2018-08-30T07:48:22.034Z,53.12
2018-08-30T07:50:52.886Z,52.54
2018-08-30T07:53:23.911Z,52.35
2018-08-30T07:55:54.735Z,51.72
2018-08-30T07:58:25.981Z,51.60
2018-08-30T08:00:56.786Z,50.09
2018-08-30T08:03:27.583Z,49.28
2018-08-30T08:05:58.366Z,49.22
2018-08-30T08:08:29.442Z,48.48
2018-08-30T08:11:00.601Z,49.53
2018-08-30T08:13:31.428Z,50.05
2018-08-30T08:16:02.200Z,48.55
2018-08-30T08:18:33.153Z,47.54
2018-08-30T08:21:03.927Z,46.24
2018-08-30T08:23:34.857Z,46.44
2018-08-30T08:26:05.636Z,45.78
2018-08-30T08:28:36.484Z,45.55
2018-08-30T08:31:07.317Z,45.28
2018-08-30T08:33:38.133Z,45.06
2018-08-30T08:36:08.916Z,43.76
2018-08-30T08:38:39.757Z,43.96
2018-08-30T08:41:10.567Z,44.13
2018-08-30T08:43:41.364Z,40.70
2018-08-30T08:46:12.365Z,40.07
2018-08-30T08:48:43.218Z,39.74
2018-08-30T08:51:14.872Z,40.55
2018-08-30T08:53:46.513Z,41.34
2018-08-30T08:56:17.161Z,39.80
2018-08-30T08:58:48.123Z,39.92
2018-08-30T09:01:19.137Z,40.32
2018-08-30T09:03:50.120Z,40.17
2018-08-30T09:06:20.902Z,39.86
2018-08-30T09:08:51.762Z,41.12
2018-08-30T09:11:22.546Z,42.04
2018-08-30T09:13:53.385Z,42.77
2018-08-30T09:16:24.174Z,43.35
2018-08-30T09:18:55.116Z,42.23
2018-08-30T09:21:25.957Z,43.21
2018-08-30T09:23:57.238Z,41.92
2018-08-30T09:26:28.030Z,42.23
2018-08-30T09:28:58.844Z,40.98
2018-08-30T09:31:29.635Z,40.01
2018-08-30T09:34:00.557Z,38.92
2018-08-30T09:36:31.488Z,37.32
2018-08-30T09:39:02.428Z,38.89
2018-08-30T09:41:33.190Z,38.27
2018-08-30T09:44:04.094Z,36.33
2018-08-30T09:46:34.937Z,37.22
2018-08-30T09:49:06.198Z,37.78
2018-08-30T09:51:37.114Z,34.52
2018-08-30T09:54:07.967Z,34.67
2018-08-30T09:56:38.765Z,33.25
2018-08-30T09:59:10.288Z,31.90
2018-08-30T10:01:50.080Z,30.90
2018-08-30T10:04:20.901Z,29.44
2018-08-30T10:06:51.746Z,31.31
2018-08-30T10:09:22.616Z,30.51
2018-08-30T10:11:53.964Z,30.14
2018-08-30T10:14:24.804Z,28.79
2018-08-30T10:16:55.653Z,26.81
2018-08-30T10:19:26.553Z,28.91
2018-08-30T10:21:57.420Z,26.98
2018-08-30T10:24:28.699Z,24.87
2018-08-30T10:26:59.463Z,25.95
2018-08-30T10:29:30.273Z,26.56
2018-08-30T10:32:01.034Z,26.06
2018-08-30T10:34:31.833Z,25.11
2018-08-30T10:37:02.694Z,25.52
2018-08-30T10:39:33.733Z,26.03
2018-08-30T10:42:04.529Z,24.82
2018-08-30T10:44:35.372Z,26.12
2018-08-30T10:47:06.181Z,25.81
2018-08-30T10:49:37.077Z,26.26
2018-08-30T10:52:08.036Z,25.55
2018-08-30T10:54:38.896Z,26.20
2018-08-30T10:57:09.672Z,25.57
2018-08-30T10:59:44.294Z,26.27
2018-08-30T11:02:15.189Z,25.46
2018-08-30T11:04:46.462Z,24.41
2018-08-30T11:07:21.034Z,24.44
2018-08-30T11:09:52.234Z,25.31
2018-08-30T11:12:23.020Z,25.18
2018-08-30T11:14:55.582Z,25.28
2018-08-30T11:17:26.766Z,24.67
2018-08-30T11:19:57.741Z,25.24
2018-08-30T11:22:28.632Z,25.90
2018-08-30T11:24:59.599Z,24.61
2018-08-30T11:27:30.828Z,24.72
2018-08-30T11:30:01.646Z,25.34
2018-08-30T11:32:32.520Z,25.59
2018-08-30T11:35:03.350Z,25.35
2018-08-30T11:37:35.182Z,24.22
2018-08-30T11:40:06.341Z,24.72
2018-08-30T11:42:37.204Z,24.39
2018-08-30T11:45:09.477Z,23.88
2018-08-30T11:47:40.272Z,24.25
2018-08-30T11:50:11.572Z,23.23
2018-08-30T11:52:50.552Z,22.95
2018-08-30T11:55:21.444Z,23.06
2018-08-30T11:57:52.227Z,23.43
2018-08-30T12:00:23.161Z,22.86
2018-08-30T12:02:54.010Z,22.46
2018-08-30T12:05:24.998Z,23.32
2018-08-30T12:07:56.271Z,22.35
2018-08-30T12:10:28.119Z,22.54
2018-08-30T12:12:59.376Z,22.99
2018-08-30T12:15:30.200Z,23.52
2018-08-30T12:18:01.084Z,24.81
2018-08-30T12:20:32.039Z,24.75
2018-08-30T12:23:03.036Z,23.44
2018-08-30T12:25:33.930Z,24.90
2018-08-30T12:28:04.753Z,23.99
2018-08-30T12:30:35.606Z,24.56
2018-08-30T12:33:06.515Z,24.34
2018-08-30T12:35:37.669Z,21.74
2018-08-30T12:38:08.625Z,22.17
2018-08-30T12:40:39.531Z,23.11
2018-08-30T12:43:10.510Z,21.86
2018-08-30T12:45:41.620Z,23.17
2018-08-30T12:48:12.637Z,23.49
2018-08-30T12:50:43.833Z,23.60
2018-08-30T12:53:14.864Z,23.54
2018-08-30T12:55:46.020Z,23.60
2018-08-30T12:58:17.290Z,22.58
2018-08-30T13:00:48.244Z,22.51
2018-08-30T13:03:19.364Z,23.10
2018-08-30T13:05:50.602Z,24.44
2018-08-30T13:08:21.582Z,23.29
2018-08-30T13:10:53.077Z,23.54
2018-08-30T13:13:24.027Z,23.11
2018-08-30T13:15:55.024Z,23.86
2018-08-30T13:18:26.092Z,23.31
2018-08-30T13:20:57.706Z,22.71
2018-08-30T13:23:28.867Z,24.34
2018-08-30T13:25:59.788Z,23.64
2018-08-30T13:28:30.839Z,23.70
2018-08-30T13:31:02.075Z,22.43
2018-08-30T13:33:32.888Z,22.53
2018-08-30T13:36:04.504Z,21.75
2018-08-30T13:38:35.697Z,21.19
2018-08-30T13:41:07.072Z,22.19
2018-08-30T13:43:37.892Z,23.57
2018-08-30T13:46:08.987Z,23.10
2018-08-30T13:48:39.935Z,23.85
2018-08-30T13:51:11.089Z,22.93
2018-08-30T13:53:41.988Z,22.79
2018-08-30T13:56:13.251Z,20.31
2018-08-30T13:58:45.215Z,21.02
2018-08-30T14:01:16.495Z,20.08
2018-08-30T14:03:47.126Z,20.13
2018-08-30T14:06:18.246Z,20.84
2018-08-30T14:08:49.476Z,21.51
2018-08-30T14:11:21.328Z,21.95
2018-08-30T14:13:53.770Z,22.41
2018-08-30T14:16:24.542Z,21.03
2018-08-30T14:18:56.274Z,20.63
2018-08-30T14:21:27.864Z,21.46
2018-08-30T14:23:59.033Z,23.63
2018-08-30T14:26:30.069Z,22.81
2018-08-30T14:29:00.858Z,20.91
2018-08-30T14:31:31.772Z,18.96
2018-08-30T14:34:02.582Z,17.56
2018-08-30T14:36:33.479Z,18.73
2018-08-30T14:39:04.839Z,19.57
2018-08-30T14:41:35.714Z,18.66
2018-08-30T14:44:06.738Z,20.06
2018-08-30T14:46:37.603Z,20.80
2018-08-30T14:49:08.494Z,20.35
2018-08-30T14:51:39.580Z,19.03
2018-08-30T14:54:10.582Z,20.14
2018-08-30T14:56:41.561Z,21.98
2018-08-30T14:59:13.159Z,24.44
2018-08-30T15:01:44.210Z,25.08
2018-08-30T15:04:18.242Z,25.00
2018-08-30T15:06:49.248Z,25.74
2018-08-30T15:09:20.086Z,27.04
2018-08-30T15:11:50.983Z,28.07
2018-08-30T15:14:21.985Z,28.61
2018-08-30T15:16:53.152Z,28.39
2018-08-30T15:19:24.054Z,29.45
2018-08-30T15:22:06.782Z,29.05
2018-08-30T15:24:37.608Z,29.34
2018-08-30T15:27:08.512Z,28.98
2018-08-30T15:29:39.518Z,30.45
2018-08-30T15:32:10.317Z,30.52
2018-08-30T15:34:41.087Z,30.16
2018-08-30T15:37:11.962Z,30.76
2018-08-30T15:39:42.741Z,30.64
2018-08-30T15:42:13.564Z,31.57
2018-08-30T15:44:44.556Z,31.63
2018-08-30T15:47:16.397Z,30.88
2018-08-30T15:49:47.313Z,31.16
2018-08-30T15:52:18.197Z,31.26
2018-08-30T15:54:49.123Z,31.53
2018-08-30T15:57:20.073Z,31.97
2018-08-30T15:59:51.069Z,32.51
2018-08-30T16:02:21.902Z,32.62
2018-08-30T16:04:52.669Z,33.38
2018-08-30T16:07:23.555Z,33.95
2018-08-30T16:09:54.737Z,36.08
2018-08-30T16:12:25.588Z,36.11
2018-08-30T16:14:56.604Z,37.35
2018-08-30T16:17:27.464Z,38.37
2018-08-30T16:19:58.292Z,40.13
2018-08-30T16:23:16.506Z,40.22
2018-08-30T16:25:47.952Z,39.79
2018-08-30T16:28:20.189Z,40.16
2018-08-30T16:30:51.228Z,38.81
2018-08-30T16:33:22.324Z,39.85
2018-08-30T16:35:53.249Z,39.00
2018-08-30T16:38:24.319Z,40.28
2018-08-30T16:40:55.252Z,40.41
2018-08-30T16:43:26.113Z,40.51
2018-08-30T16:45:57.316Z,40.46
2018-08-30T16:48:28.201Z,41.99
2018-08-30T16:50:59.021Z,42.57
2018-08-30T16:53:29.904Z,43.32
2018-08-30T16:56:01.615Z,43.55
2018-08-30T16:58:33.331Z,44.60
2018-08-30T17:01:10.571Z,44.30
2018-08-30T17:03:42.899Z,44.97
2018-08-30T17:06:15.086Z,45.47
2018-08-30T17:08:48.044Z,45.73
2018-08-30T17:11:19.476Z,45.32
2018-08-30T17:13:50.384Z,45.94
2018-08-30T17:16:24.143Z,47.39
2018-08-30T17:18:58.197Z,47.50
2018-08-30T17:21:29.057Z,48.06
2018-08-30T17:24:00.369Z,49.26
2018-08-30T17:26:31.176Z,49.62
2018-08-30T17:29:02.030Z,50.00
2018-08-30T17:31:33.090Z,49.62
2018-08-30T17:34:04.182Z,49.81
2018-08-30T17:36:35.245Z,50.62
2018-08-30T17:39:07.557Z,51.42
2018-08-30T17:41:38.449Z,51.30
2018-08-30T17:44:09.370Z,50.43
2018-08-30T17:46:40.258Z,52.43
2018-08-30T17:49:11.178Z,54.83
2018-08-30T17:51:42.180Z,55.07
2018-08-30T17:54:13.278Z,56.01
2018-08-30T17:56:44.250Z,55.31
2018-08-30T17:59:15.155Z,55.63
2018-08-30T18:01:46.087Z,55.93
2018-08-30T18:04:17.082Z,55.88
2018-08-30T18:06:48.258Z,56.81
2018-08-30T18:09:20.383Z,57.07
2018-08-30T18:11:51.237Z,57.06
2018-08-30T18:14:22.482Z,57.58
2018-08-30T18:16:53.279Z,58.05
2018-08-30T18:19:24.141Z,57.54
2018-08-30T18:21:55.191Z,57.04
2018-08-30T18:24:27.915Z,58.10
2018-08-30T18:26:59.128Z,57.60
2018-08-30T18:29:30.024Z,55.57
2018-08-30T18:32:00.889Z,54.03
2018-08-30T18:34:31.728Z,56.36
2018-08-30T18:37:02.694Z,57.23
2018-08-30T18:39:33.601Z,59.49
2018-08-30T18:42:04.723Z,60.78
2018-08-30T18:44:36.955Z,60.82
2018-08-30T18:47:08.044Z,60.50
2018-08-30T18:49:39.077Z,61.39
2018-08-30T18:52:10.851Z,59.17
2018-08-30T18:54:41.759Z,60.26
2018-08-30T18:57:12.584Z,60.01
2018-08-30T18:59:43.496Z,59.89
2018-08-30T19:02:14.304Z,59.69
2018-08-30T19:04:45.129Z,59.89
2018-08-30T19:07:16.114Z,59.29
2018-08-30T19:09:47.005Z,60.30
2018-08-30T19:12:17.923Z,61.51
2018-08-30T19:14:48.872Z,63.22
2018-08-30T19:17:24.642Z,61.63
2018-08-30T19:19:55.600Z,61.44
2018-08-30T19:22:26.536Z,58.35
2018-08-30T19:25:02.513Z,59.99
2018-08-30T19:27:33.702Z,60.22
2018-08-30T19:30:10.403Z,61.17
2018-08-30T19:32:41.196Z,64.35
2018-08-30T19:35:17.133Z,65.14
2018-08-30T19:37:48.650Z,64.86
2018-08-30T19:40:24.879Z,64.99
2018-08-30T19:42:55.714Z,65.94
2018-08-30T19:45:28.650Z,67.63
2018-08-30T19:47:59.754Z,67.58
2018-08-30T19:50:31.428Z,68.78
2018-08-30T19:53:02.336Z,69.25
2018-08-30T19:55:33.498Z,69.86
2018-08-30T19:58:04.312Z,71.11
2018-08-30T20:00:40.316Z,71.18
2018-08-30T20:03:17.188Z,69.60
2018-08-30T20:05:53.297Z,69.57
2018-08-30T20:08:29.092Z,70.16
2018-08-30T20:11:05.024Z,69.41
2018-08-30T20:13:40.932Z,70.03
2018-08-30T20:16:16.717Z,70.34
2018-08-30T20:18:52.503Z,71.45
2018-08-30T20:21:28.367Z,73.02
2018-08-30T20:24:04.295Z,73.43
2018-08-30T20:26:40.405Z,72.69
2018-08-30T20:29:16.933Z,72.18
2018-08-30T20:31:52.927Z,72.11
2018-08-30T20:34:28.730Z,72.23
2018-08-30T20:37:04.629Z,71.91
2018-08-30T20:39:40.923Z,71.39
2018-08-30T20:42:17.340Z,72.54
2018-08-30T20:44:53.209Z,72.15
2018-08-30T20:47:29.526Z,73.37
2018-08-30T20:50:05.613Z,75.56
2018-08-30T20:52:41.831Z,75.73
2018-08-30T20:55:17.589Z,76.27
2018-08-30T20:57:54.238Z,76.03
2018-08-30T21:00:30.041Z,76.03
2018-08-30T21:03:06.932Z,77.25
2018-08-30T21:05:42.791Z,77.35
2018-08-30T21:08:18.811Z,77.50
2018-08-30T21:10:54.528Z,76.36
2018-08-30T21:13:30.387Z,75.61
2018-08-30T21:16:07.068Z,75.50
2018-08-30T21:18:42.865Z,75.87
2018-08-30T21:21:24.666Z,75.30
2018-08-30T21:24:01.013Z,75.01
2018-08-30T21:26:36.866Z,77.06
2018-08-30T21:29:12.957Z,77.41
2018-08-30T21:31:48.783Z,77.26
2018-08-30T21:34:24.727Z,76.90
2018-08-30T21:37:00.665Z,76.70
2018-08-30T21:39:36.561Z,76.23
2018-08-30T21:42:12.165Z,76.21
2018-08-30T21:44:48.144Z,75.32
2018-08-30T21:47:24.092Z,76.36
2018-08-30T21:49:59.983Z,76.76
2018-08-30T21:52:36.403Z,76.41
2018-08-30T21:55:14.500Z,75.74
2018-08-30T21:57:50.212Z,75.69
2018-08-30T22:00:26.460Z,75.36
2018-08-30T22:03:02.332Z,75.64
2018-08-30T22:05:38.584Z,76.91
2018-08-30T22:08:14.384Z,77.45
2018-08-30T22:10:50.239Z,78.93
2018-08-30T22:13:26.653Z,81.78
2018-08-30T22:16:02.523Z,83.13
2018-08-30T22:18:39.448Z,83.32
2018-08-30T22:21:15.256Z,82.19
2018-08-30T22:23:51.207Z,81.01
2018-08-30T22:26:27.791Z,80.42
2018-08-30T22:29:03.567Z,79.11
2018-08-30T22:31:39.631Z,78.44
2018-08-30T22:34:15.372Z,77.47
2018-08-30T22:36:51.270Z,77.40
2018-08-30T22:39:27.098Z,78.30
2018-08-30T22:42:02.914Z,79.88
2018-08-30T22:44:38.766Z,79.71
2018-08-30T22:47:14.712Z,81.03
2018-08-30T22:49:50.680Z,81.32
2018-08-30T22:52:26.458Z,81.28
2018-08-30T22:55:02.289Z,82.57
2018-08-30T22:57:38.102Z,84.56
2018-08-30T23:00:15.154Z,85.67
2018-08-30T23:02:50.915Z,83.75
2018-08-30T23:05:27.924Z,83.07
2018-08-30T23:08:04.463Z,82.90
2018-08-30T23:10:41.466Z,83.81
2018-08-30T23:13:18.141Z,82.68
2018-08-30T23:15:54.695Z,83.50
2018-08-30T23:18:30.882Z,83.51
2018-08-30T23:21:07.206Z,82.84
2018-08-30T23:23:43.352Z,82.22
2018-08-30T23:26:19.323Z,82.29
2018-08-30T23:28:55.125Z,82.45
2018-08-30T23:31:31.798Z,82.26
2018-08-30T23:34:07.662Z,81.43
2018-08-30T23:36:43.626Z,83.08
2018-08-30T23:39:20.442Z,83.43
2018-08-30T23:41:56.163Z,84.47
2018-08-30T23:44:31.970Z,85.22
2018-08-30T23:47:07.727Z,86.10
2018-08-30T23:49:43.627Z,86.58
2018-08-30T23:52:19.824Z,86.35
2018-08-30T23:54:55.675Z,86.91
2018-08-30T23:57:31.429Z,86.53
